Time;durP1;ratioP1;P1;durP2;ratioP2;P2;SDS_P1;SDS_P2;PMS_P1;PMS_P2;Temp;Humidity;BMP_temperature;BMP_pressure;BME280_temperature;BME280_humidity;BME280_pressure;Samples;Min_cycle;Max_cycle;Signal;HPM_P1;HPM_P2
2022/12/02 00:01:37;;;;;;;45.53;24.17;;;4.00;99.90;;;;;;7377264;19;20384;-50
2022/12/02 00:04:19;;;;;;;50.28;26.08;;;4.00;99.90;;;;;;7375293;19;20019;-48
2022/12/02 00:06:46;;;;;;;46.92;24.08;;;4.00;99.90;;;;;;7380973;19;20014;-48
2022/12/02 00:09:36;;;;;;;47.55;24.20;;;3.90;99.90;;;;;;7376282;19;20030;-50
2022/12/02 00:12:25;;;;;;;48.38;24.20;;;4.00;99.90;;;;;;7375102;19;20442;-49
2022/12/02 00:14:59;;;;;;;46.78;25.25;;;3.90;99.90;;;;;;7379074;19;20388;-46
2022/12/02 00:17:26;;;;;;;49.00;26.50;;;3.90;99.90;;;;;;7376131;19;20026;-47
2022/12/02 00:19:53;;;;;;;49.83;24.75;;;4.00;99.90;;;;;;7377692;19;20074;-49
2022/12/02 00:22:22;;;;;;;51.65;26.20;;;4.00;99.90;;;;;;7385032;19;20048;-48
2022/12/02 00:24:49;;;;;;;49.78;24.77;;;4.00;99.90;;;;;;7381449;19;20018;-49
2022/12/02 00:27:17;;;;;;;49.13;26.42;;;4.00;99.90;;;;;;7374568;19;20025;-51
2022/12/02 00:29:43;;;;;;;46.47;24.52;;;4.00;99.90;;;;;;7386354;19;20479;-48
2022/12/02 00:32:09;;;;;;;47.20;24.60;;;4.00;99.90;;;;;;7386492;19;20018;-50
2022/12/02 00:38:57;;;;;;;51.72;24.50;;;4.00;99.90;;;;;;7375414;19;20065;-49
2022/12/02 00:41:24;;;;;;;43.38;25.17;;;4.00;99.90;;;;;;7371561;19;20115;-49
2022/12/02 00:46:36;;;;;;;44.72;23.35;;;4.00;99.90;;;;;;7372537;19;20028;-48
2022/12/02 00:49:11;;;;;;;44.28;24.05;;;3.90;99.90;;;;;;7380301;19;20018;-50
2022/12/02 00:51:40;;;;;;;49.83;26.20;;;4.00;99.90;;;;;;7374757;19;20475;-49
2022/12/02 00:54:08;;;;;;;53.05;27.27;;;4.00;99.90;;;;;;7375403;19;20103;-47
2022/12/02 00:56:35;;;;;;;48.45;24.30;;;3.90;99.90;;;;;;7384135;19;20486;-51
2022/12/02 00:59:05;;;;;;;45.20;25.23;;;3.90;99.90;;;;;;7391828;19;20014;-49
2022/12/02 01:01:32;;;;;;;54.53;26.98;;;3.90;99.90;;;;;;7393519;19;20404;-53
2022/12/02 01:03:58;;;;;;;51.80;26.40;;;3.90;99.90;;;;;;7373469;19;20026;-47
2022/12/02 01:06:25;;;;;;;48.85;26.67;;;3.90;99.90;;;;;;7374998;19;20343;-50
2022/12/02 01:08:51;;;;;;;47.75;26.98;;;3.90;99.90;;;;;;7375899;19;20461;-48
2022/12/02 01:11:18;;;;;;;47.00;24.88;;;3.90;99.90;;;;;;7382685;19;20382;-50
2022/12/02 01:13:44;;;;;;;48.15;27.08;;;3.90;99.90;;;;;;7371972;19;20026;-48
2022/12/02 01:16:10;;;;;;;49.20;26.05;;;3.80;99.90;;;;;;7384945;19;20482;-51
2022/12/02 01:18:36;;;;;;;43.00;26.55;;;3.90;99.90;;;;;;7389817;19;20071;-51
2022/12/02 01:21:03;;;;;;;48.63;26.45;;;3.90;99.90;;;;;;7390565;19;20446;-51
2022/12/02 01:23:29;;;;;;;48.45;24.67;;;3.90;99.90;;;;;;7389731;19;20351;-51
2022/12/02 01:25:56;;;;;;;45.35;25.52;;;3.80;99.90;;;;;;7393563;19;20039;-51
2022/12/02 01:28:22;;;;;;;50.72;26.02;;;3.80;99.90;;;;;;7392795;19;20442;-51
2022/12/02 01:30:48;;;;;;;47.78;25.95;;;3.80;99.90;;;;;;7375516;19;20018;-50
2022/12/02 01:33:15;;;;;;;45.20;24.23;;;3.80;99.90;;;;;;7385171;19;20122;-46
2022/12/02 01:35:41;;;;;;;46.45;26.00;;;3.80;99.90;;;;;;7372552;19;20015;-46
2022/12/02 01:38:07;;;;;;;48.50;24.92;;;3.80;99.90;;;;;;7377441;19;20021;-48
2022/12/02 01:40:34;;;;;;;41.65;23.27;;;3.80;99.90;;;;;;7377032;19;20022;-51
2022/12/02 01:43:00;;;;;;;43.15;22.92;;;3.80;99.90;;;;;;7377377;19;20565;-51
2022/12/02 01:45:28;;;;;;;44.15;23.30;;;3.70;99.90;;;;;;7376505;19;20015;-52
2022/12/02 01:47:54;;;;;;;41.40;24.13;;;3.70;99.90;;;;;;7375553;19;20038;-47
2022/12/02 01:50:20;;;;;;;42.05;23.10;;;3.70;99.90;;;;;;7378713;19;20018;-46
2022/12/02 01:52:47;;;;;;;43.20;21.65;;;3.70;99.90;;;;;;7375311;19;20022;-48
2022/12/02 01:55:18;;;;;;;39.30;20.08;;;3.70;99.90;;;;;;7375540;19;20007;-48
2022/12/02 01:57:45;;;;;;;37.25;20.27;;;3.60;99.90;;;;;;7371602;19;20043;-49
2022/12/02 02:00:13;;;;;;;43.97;22.08;;;3.60;99.90;;;;;;7375705;19;20017;-45
2022/12/02 02:02:44;;;;;;;47.15;21.02;;;3.60;99.90;;;;;;7372697;19;20425;-46
2022/12/02 02:05:18;;;;;;;38.50;21.27;;;3.60;99.90;;;;;;7374035;19;20858;-46
2022/12/02 02:07:48;;;;;;;38.90;20.60;;;3.60;99.90;;;;;;7374575;19;20399;-49
2022/12/02 02:10:16;;;;;;;38.78;19.77;;;3.60;99.90;;;;;;7375739;19;20615;-48
2022/12/02 02:12:45;;;;;;;38.00;18.77;;;3.60;99.90;;;;;;7372306;19;20441;-48
2022/12/02 02:15:12;;;;;;;37.58;18.30;;;3.50;99.90;;;;;;7375404;19;20132;-45
2022/12/02 02:17:38;;;;;;;39.83;20.40;;;3.50;99.90;;;;;;7373629;19;20015;-45
2022/12/02 02:20:10;;;;;;;32.92;19.02;;;3.50;99.90;;;;;;7375422;19;20025;-47
2022/12/02 02:22:45;;;;;;;31.70;18.63;;;3.50;99.90;;;;;;7371594;19;20047;-48
2022/12/02 02:25:17;;;;;;;25.65;15.63;;;3.50;99.90;;;;;;7371687;19;20022;-48
2022/12/02 02:27:51;;;;;;;28.20;16.63;;;3.40;99.90;;;;;;7375190;19;20144;-50
2022/12/02 02:30:18;;;;;;;27.15;17.45;;;3.40;99.90;;;;;;7369085;19;20026;-46
2022/12/02 02:32:46;;;;;;;27.55;16.35;;;3.40;99.90;;;;;;7373603;19;20021;-50
2022/12/02 02:35:14;;;;;;;27.52;16.70;;;3.40;99.90;;;;;;7372481;19;20022;-49
2022/12/02 02:37:42;;;;;;;30.80;17.55;;;3.40;99.90;;;;;;7372957;19;20022;-46
2022/12/02 02:40:10;;;;;;;31.05;18.40;;;3.40;99.90;;;;;;7369195;19;20456;-46
2022/12/02 02:42:37;;;;;;;27.13;15.82;;;3.40;99.90;;;;;;7374053;19;20015;-46
2022/12/02 02:45:04;;;;;;;30.60;17.70;;;3.40;99.90;;;;;;7375171;19;20395;-49
2022/12/02 02:47:30;;;;;;;27.63;16.25;;;3.30;99.90;;;;;;7377978;19;20336;-46
2022/12/02 02:49:57;;;;;;;27.60;16.55;;;3.30;99.90;;;;;;7375841;19;20018;-48
2022/12/02 02:52:23;;;;;;;29.60;18.13;;;3.30;99.90;;;;;;7376267;19;20026;-51
2022/12/02 02:54:49;;;;;;;33.22;18.58;;;3.30;99.90;;;;;;7369208;19;20018;-49
2022/12/02 02:57:16;;;;;;;26.83;17.05;;;3.30;99.90;;;;;;7372305;19;20015;-49
2022/12/02 02:59:43;;;;;;;26.92;16.48;;;3.30;99.90;;;;;;7375007;19;20022;-47
2022/12/02 03:02:13;;;;;;;28.35;17.33;;;3.30;99.90;;;;;;7376693;19;20026;-47
2022/12/02 03:04:42;;;;;;;28.10;16.80;;;3.30;99.90;;;;;;7371498;19;20035;-49
2022/12/02 03:07:11;;;;;;;30.93;17.97;;;3.30;99.90;;;;;;7377565;19;20018;-46
2022/12/02 03:09:38;;;;;;;29.67;17.70;;;3.30;99.90;;;;;;7372375;19;20019;-51
2022/12/02 03:12:05;;;;;;;30.23;18.13;;;3.30;99.90;;;;;;7375433;19;20026;-47
2022/12/02 03:14:32;;;;;;;31.08;18.80;;;3.30;99.90;;;;;;7372147;19;20015;-50
2022/12/02 03:17:00;;;;;;;29.95;18.02;;;3.30;99.90;;;;;;7377692;19;20041;-48
2022/12/02 03:19:30;;;;;;;27.15;17.08;;;3.30;99.90;;;;;;7371766;19;20030;-47
2022/12/02 03:21:57;;;;;;;26.30;16.38;;;3.30;99.90;;;;;;7378789;19;20483;-49
2022/12/02 03:24:23;;;;;;;29.92;17.35;;;3.30;99.90;;;;;;7370336;19;20011;-46
2022/12/02 03:26:49;;;;;;;26.73;16.50;;;3.30;99.90;;;;;;7376717;19;20138;-46
2022/12/02 03:29:17;;;;;;;30.95;16.77;;;3.30;99.90;;;;;;7373790;19;20025;-45
2022/12/02 03:31:44;;;;;;;30.15;18.35;;;3.30;99.90;;;;;;7372274;19;20495;-49
2022/12/02 03:34:11;;;;;;;28.42;16.40;;;3.20;99.90;;;;;;7371322;19;20131;-49
2022/12/02 03:36:38;;;;;;;27.63;15.23;;;3.30;99.90;;;;;;7372554;19;20438;-47
2022/12/02 03:39:05;;;;;;;28.83;15.50;;;3.20;99.90;;;;;;7380146;19;20022;-46
2022/12/02 03:41:31;;;;;;;27.50;15.93;;;3.30;99.90;;;;;;7383049;19;20025;-47
2022/12/02 03:43:58;;;;;;;27.33;15.25;;;3.30;99.90;;;;;;7390101;19;20021;-46
2022/12/02 03:46:26;;;;;;;29.55;16.23;;;3.20;99.90;;;;;;7384769;19;20032;-45
2022/12/02 03:48:53;;;;;;;26.35;15.88;;;3.20;99.90;;;;;;7379288;19;20018;-47
2022/12/02 03:51:19;;;;;;;29.67;16.13;;;3.20;99.90;;;;;;7384905;19;20355;-50
2022/12/02 03:53:45;;;;;;;29.13;15.65;;;3.20;99.90;;;;;;7383716;19;20018;-50
2022/12/02 03:56:12;;;;;;;29.10;15.95;;;3.20;99.90;;;;;;7388872;19;20097;-49
2022/12/02 03:58:45;;;;;;;32.38;16.60;;;3.30;99.90;;;;;;7385957;19;20318;-50
2022/12/02 04:01:12;;;;;;;31.60;16.00;;;3.20;99.90;;;;;;7396723;19;20019;-51
2022/12/02 04:03:38;;;;;;;33.97;16.63;;;3.20;99.90;;;;;;7393855;19;20499;-51
2022/12/02 04:06:04;;;;;;;31.85;17.00;;;3.20;99.90;;;;;;7393834;19;20029;-48
2022/12/02 04:08:30;;;;;;;32.55;16.58;;;3.10;99.90;;;;;;7393512;19;20025;-48
2022/12/02 04:10:57;;;;;;;33.80;15.75;;;3.10;99.90;;;;;;7394290;19;20110;-51
2022/12/02 04:13:23;;;;;;;33.22;17.98;;;3.10;99.90;;;;;;7390905;19;20026;-48
2022/12/02 04:15:49;;;;;;;36.13;18.15;;;3.10;99.90;;;;;;7378713;19;20549;-51
2022/12/02 04:18:16;;;;;;;36.67;18.10;;;3.10;99.90;;;;;;7393926;19;20133;-50
2022/12/02 04:20:42;;;;;;;38.58;19.77;;;3.10;99.90;;;;;;7392449;19;20134;-50
2022/12/02 04:23:08;;;;;;;35.70;19.15;;;3.10;99.90;;;;;;7393261;19;20018;-50
2022/12/02 04:25:34;;;;;;;36.03;20.30;;;3.00;99.90;;;;;;7380629;19;20325;-49
2022/12/02 04:28:01;;;;;;;31.85;17.40;;;3.00;99.90;;;;;;7381785;19;20006;-52
2022/12/02 04:30:28;;;;;;;35.58;19.42;;;3.10;99.90;;;;;;7391666;19;20015;-51
2022/12/02 04:32:54;;;;;;;37.50;18.77;;;3.10;99.90;;;;;;7393339;19;20090;-50
2022/12/02 04:35:20;;;;;;;33.40;18.10;;;3.00;99.90;;;;;;7391073;19;20425;-50
2022/12/02 04:37:47;;;;;;;35.78;17.98;;;3.00;99.90;;;;;;7391388;19;20013;-50
2022/12/02 04:40:13;;;;;;;35.13;18.38;;;3.00;99.90;;;;;;7382394;19;20014;-51
2022/12/02 04:42:39;;;;;;;37.30;18.40;;;3.00;99.90;;;;;;7378610;19;20022;-49
2022/12/02 04:45:06;;;;;;;35.97;19.00;;;3.00;99.90;;;;;;7379419;19;20018;-48
2022/12/02 04:47:32;;;;;;;37.47;18.50;;;3.00;99.90;;;;;;7374596;19;20078;-52
2022/12/02 04:49:58;;;;;;;35.25;18.92;;;2.90;99.90;;;;;;7377600;19;20030;-50
2022/12/02 04:52:24;;;;;;;37.40;18.08;;;3.00;99.90;;;;;;7376306;19;20022;-49
2022/12/02 04:54:50;;;;;;;39.20;20.98;;;2.90;99.90;;;;;;7376071;19;20028;-50
2022/12/02 04:57:16;;;;;;;36.97;19.33;;;3.00;99.90;;;;;;7377693;19;20719;-46
2022/12/02 04:59:42;;;;;;;36.65;19.42;;;2.90;99.90;;;;;;7376267;19;20755;-51
2022/12/02 05:02:09;;;;;;;42.15;20.42;;;2.90;99.90;;;;;;7380511;19;20114;-51
2022/12/02 05:04:35;;;;;;;37.13;17.95;;;2.80;99.90;;;;;;7375628;19;20022;-49
2022/12/02 05:07:01;;;;;;;34.25;19.60;;;2.90;99.90;;;;;;7378729;19;20022;-47
2022/12/02 05:09:27;;;;;;;40.83;20.83;;;2.80;99.90;;;;;;7378749;19;20022;-45
2022/12/02 05:11:53;;;;;;;39.80;22.35;;;2.80;99.90;;;;;;7381028;19;20364;-49
2022/12/02 05:14:19;;;;;;;33.50;19.75;;;2.80;99.90;;;;;;7374995;19;20014;-52
2022/12/02 05:16:46;;;;;;;39.42;20.48;;;2.80;99.90;;;;;;7376241;19;20019;-49
2022/12/02 05:19:12;;;;;;;44.53;20.63;;;2.80;99.90;;;;;;7378423;19;20019;-51
2022/12/02 05:21:38;;;;;;;36.25;19.58;;;2.80;99.90;;;;;;7375602;19;20870;-46
2022/12/02 05:24:05;;;;;;;38.92;21.63;;;2.80;99.90;;;;;;7390778;19;20478;-50
2022/12/02 05:26:31;;;;;;;38.95;21.15;;;2.80;99.90;;;;;;7389295;19;20014;-49
2022/12/02 05:28:57;;;;;;;37.35;20.92;;;2.70;99.90;;;;;;7377916;19;20018;-48
2022/12/02 05:31:25;;;;;;;39.80;20.85;;;2.70;99.90;;;;;;7363277;19;20483;-48
2022/12/02 05:33:51;;;;;;;42.42;21.23;;;2.70;99.90;;;;;;7364386;19;20495;-47
2022/12/02 05:36:18;;;;;;;44.63;22.15;;;2.70;99.90;;;;;;7369664;19;20378;-47
2022/12/02 05:38:44;;;;;;;42.90;20.98;;;2.60;99.90;;;;;;7365743;19;20735;-47
2022/12/02 05:41:10;;;;;;;41.20;21.10;;;2.70;99.90;;;;;;7365393;19;20022;-46
2022/12/02 05:43:39;;;;;;;47.13;23.13;;;2.60;99.90;;;;;;7372214;19;20026;-47
2022/12/02 05:46:18;;;;;;;45.25;21.50;;;2.60;99.90;;;;;;7384277;19;20018;-45
2022/12/02 05:48:46;;;;;;;40.22;21.30;;;2.60;99.90;;;;;;7382784;19;20387;-46
2022/12/02 05:51:15;;;;;;;43.20;21.52;;;2.60;99.90;;;;;;7366364;19;20126;-47
2022/12/02 05:53:43;;;;;;;40.40;21.15;;;2.60;99.90;;;;;;7379278;19;20031;-50
2022/12/02 05:56:27;;;;;;;45.50;22.42;;;2.60;99.90;;;;;;7380933;19;20010;-48
2022/12/02 05:59:10;;;;;;;44.53;21.23;;;2.50;99.90;;;;;;7382440;19;20039;-46
2022/12/02 06:01:38;;;;;;;46.20;21.50;;;2.50;99.90;;;;;;7376498;19;20015;-46
2022/12/02 06:04:18;;;;;;;45.45;21.77;;;2.50;99.90;;;;;;7368258;19;20019;-46
2022/12/02 06:06:44;;;;;;;43.13;21.75;;;2.50;99.90;;;;;;7366844;19;20123;-48
2022/12/02 06:09:14;;;;;;;44.63;21.58;;;2.50;99.90;;;;;;7380779;19;20010;-48
2022/12/02 06:11:42;;;;;;;46.97;22.50;;;2.50;99.90;;;;;;7384155;19;20604;-50
2022/12/02 06:14:32;;;;;;;49.22;24.15;;;2.50;99.90;;;;;;7376144;19;20056;-49
2022/12/02 06:17:01;;;;;;;50.35;24.58;;;2.50;99.90;;;;;;7374654;19;20331;-50
2022/12/02 06:19:54;;;;;;;53.30;24.60;;;2.50;99.90;;;;;;7372906;19;20110;-51
2022/12/02 06:22:26;;;;;;;56.25;25.00;;;2.60;99.90;;;;;;7383769;19;20014;-51
2022/12/02 06:24:58;;;;;;;50.22;23.70;;;2.50;99.90;;;;;;7386578;19;20010;-51
2022/12/02 06:27:27;;;;;;;51.85;25.40;;;2.50;99.90;;;;;;7383426;19;20025;-50
2022/12/02 06:29:56;;;;;;;52.13;25.15;;;2.50;99.90;;;;;;7374931;19;20702;-50
2022/12/02 06:32:37;;;;;;;47.95;23.45;;;2.50;99.90;;;;;;7372154;19;20018;-49
2022/12/02 06:35:24;;;;;;;52.35;24.00;;;2.50;99.90;;;;;;7374871;19;20492;-51
2022/12/02 06:37:53;;;;;;;47.13;23.75;;;2.50;99.90;;;;;;7385381;19;20374;-51
2022/12/02 06:40:25;;;;;;;54.22;26.10;;;2.50;99.90;;;;;;7376246;19;20021;-49
2022/12/02 06:42:52;;;;;;;55.20;27.10;;;2.50;99.90;;;;;;7373288;19;20014;-50
2022/12/02 06:45:32;;;;;;;54.38;25.88;;;2.50;99.90;;;;;;7377994;19;20520;-50
2022/12/02 06:48:01;;;;;;;48.92;24.80;;;2.50;99.90;;;;;;7360914;19;20733;-46
2022/12/02 06:50:31;;;;;;;55.38;24.67;;;2.50;99.90;;;;;;7362927;19;20403;-46
2022/12/02 06:53:14;;;;;;;53.50;25.73;;;2.50;99.90;;;;;;7370776;19;20624;-50
2022/12/02 06:55:42;;;;;;;51.72;23.90;;;2.50;99.90;;;;;;7370428;19;20029;-48
2022/12/02 06:58:40;;;;;;;57.35;27.45;;;2.50;99.90;;;;;;7382826;19;20092;-51
2022/12/02 07:01:06;;;;;;;55.40;25.40;;;2.60;99.90;;;;;;7363478;19;20174;-47
2022/12/02 07:03:36;;;;;;;58.90;26.88;;;2.60;99.90;;;;;;7381298;19;20011;-51
2022/12/02 07:06:17;;;;;;;53.15;24.05;;;2.60;99.90;;;;;;7383329;19;20534;-51
2022/12/02 07:08:44;;;;;;;50.13;24.77;;;2.60;99.90;;;;;;7381121;19;20079;-51
2022/12/02 07:14:30;;;;;;;52.67;24.90;;;2.60;99.90;;;;;;7374654;19;20030;-50
2022/12/02 07:17:00;;;;;;;53.97;24.75;;;2.60;99.90;;;;;;7382018;19;20363;-49
2022/12/02 07:19:46;;;;;;;54.35;26.80;;;2.70;99.90;;;;;;7383920;19;20656;-51
2022/12/02 07:22:21;;;;;;;53.53;26.42;;;2.70;99.90;;;;;;7374373;19;20593;-50
2022/12/02 07:25:15;;;;;;;57.75;27.42;;;2.70;99.90;;;;;;7370298;19;20396;-50
2022/12/02 07:27:45;;;;;;;52.78;25.83;;;2.70;99.90;;;;;;7371491;19;20023;-51
2022/12/02 07:30:26;;;;;;;55.33;25.48;;;2.60;99.90;;;;;;7372915;19;20021;-47
2022/12/02 07:32:53;;;;;;;53.45;23.88;;;2.70;99.90;;;;;;7377024;19;20036;-47
2022/12/02 07:35:20;;;;;;;53.10;25.85;;;2.70;99.90;;;;;;7371642;19;20026;-48
2022/12/02 07:37:46;;;;;;;52.72;24.90;;;2.70;99.90;;;;;;7370394;19;20021;-51
2022/12/02 07:40:17;;;;;;;53.00;24.20;;;2.70;99.90;;;;;;7364728;19;20078;-48
2022/12/02 07:42:44;;;;;;;52.42;25.80;;;2.70;99.90;;;;;;7371290;19;20018;-48
2022/12/02 07:45:17;;;;;;;49.63;24.63;;;2.70;99.90;;;;;;7372234;19;20514;-51
2022/12/02 07:47:45;;;;;;;54.50;25.23;;;2.70;99.90;;;;;;7390579;19;20010;-51
2022/12/02 07:50:14;;;;;;;56.17;27.63;;;2.80;99.90;;;;;;7385195;19;20018;-49
2022/12/02 07:52:40;;;;;;;45.42;23.52;;;2.80;99.90;;;;;;7379493;19;20047;-51
2022/12/02 07:55:07;;;;;;;48.50;23.85;;;2.80;99.90;;;;;;7370685;19;20469;-51
2022/12/02 07:57:34;;;;;;;52.72;25.17;;;2.80;99.90;;;;;;7388819;19;20399;-51
2022/12/02 08:00:00;;;;;;;54.35;25.63;;;2.80;99.90;;;;;;7380623;19;21274;-47
2022/12/02 08:02:27;;;;;;;56.88;26.10;;;2.80;99.90;;;;;;7378262;19;20037;-47
2022/12/02 08:04:53;;;;;;;70.43;39.22;;;2.80;99.90;;;;;;7374760;19;20022;-46
2022/12/02 08:07:19;;;;;;;57.38;25.73;;;2.90;99.90;;;;;;7370527;19;20018;-51
2022/12/02 08:09:45;;;;;;;51.33;26.40;;;2.90;99.90;;;;;;7380191;19;20482;-50
2022/12/02 08:12:12;;;;;;;55.90;25.58;;;2.90;99.90;;;;;;7387302;19;20367;-50
2022/12/02 08:14:38;;;;;;;58.10;26.73;;;2.90;99.90;;;;;;7386413;19;20010;-49
2022/12/02 08:17:04;;;;;;;50.83;24.77;;;2.90;99.90;;;;;;7387136;19;20513;-45
2022/12/02 08:19:30;;;;;;;60.70;27.58;;;3.00;99.90;;;;;;7388516;19;20063;-47
2022/12/02 08:21:56;;;;;;;56.60;29.05;;;3.00;99.90;;;;;;7375837;19;20023;-47
2022/12/02 08:24:41;;;;;;;57.78;29.67;;;3.00;99.90;;;;;;7380988;19;20498;-47
2022/12/02 08:27:07;;;;;;;50.53;23.95;;;3.00;99.90;;;;;;7384522;19;20022;-49
2022/12/02 08:29:34;;;;;;;54.17;26.70;;;3.00;99.90;;;;;;7368276;19;20015;-47
2022/12/02 08:32:00;;;;;;;53.05;27.67;;;3.00;99.90;;;;;;7367824;19;20049;-46
2022/12/02 08:34:27;;;;;;;54.03;24.10;;;3.00;99.90;;;;;;7355853;19;20030;-48
2022/12/02 08:36:53;;;;;;;48.20;23.80;;;3.00;99.90;;;;;;7369147;19;20401;-48
2022/12/02 08:39:20;;;;;;;58.05;29.00;;;2.90;99.90;;;;;;7390124;19;20376;-46
2022/12/02 08:41:46;;;;;;;48.55;23.55;;;2.90;99.90;;;;;;7386469;19;20025;-47
2022/12/02 08:44:13;;;;;;;48.80;24.95;;;2.90;99.90;;;;;;7378943;19;20017;-46
2022/12/02 08:46:41;;;;;;;45.70;23.73;;;2.90;99.90;;;;;;7384663;19;20080;-46
2022/12/02 08:49:07;;;;;;;58.45;25.55;;;2.90;99.90;;;;;;7381851;19;20026;-48
2022/12/02 08:51:34;;;;;;;55.65;22.85;;;2.90;99.90;;;;;;7385322;19;20015;-47
2022/12/02 08:54:01;;;;;;;49.22;25.60;;;2.90;99.90;;;;;;7386014;19;20011;-49
2022/12/02 08:59:43;;;;;;;49.30;22.88;;;2.90;99.90;;;;;;7368139;19;20431;-47
2022/12/02 09:02:09;;;;;;;50.28;23.05;;;3.00;99.90;;;;;;7369819;19;20069;-49
2022/12/02 09:04:35;;;;;;;45.42;22.08;;;3.00;99.90;;;;;;7367695;19;20014;-46
2022/12/02 09:07:02;;;;;;;50.03;24.05;;;3.00;99.90;;;;;;7376920;19;20018;-48
2022/12/02 09:09:28;;;;;;;48.00;22.75;;;3.00;99.90;;;;;;7361295;19;20029;-47
2022/12/02 09:11:54;;;;;;;49.55;22.33;;;3.00;99.90;;;;;;7365088;19;20498;-47
2022/12/02 09:14:20;;;;;;;58.97;24.23;;;3.00;99.90;;;;;;7372746;19;20028;-48
2022/12/02 09:16:47;;;;;;;48.80;23.38;;;3.00;99.90;;;;;;7374535;19;20015;-47
2022/12/02 09:19:13;;;;;;;55.03;25.60;;;3.10;99.90;;;;;;7383998;19;20018;-51
2022/12/02 09:21:39;;;;;;;58.65;26.05;;;3.10;99.90;;;;;;7371859;19;20567;-47
2022/12/02 09:24:06;;;;;;;56.05;26.90;;;3.10;99.90;;;;;;7364230;19;20019;-52
2022/12/02 09:26:33;;;;;;;56.40;29.17;;;3.10;99.90;;;;;;7375458;19;20095;-48
2022/12/02 09:29:00;;;;;;;47.28;22.30;;;3.20;99.90;;;;;;7377242;19;20011;-51
2022/12/02 09:31:26;;;;;;;58.65;26.60;;;3.20;99.90;;;;;;7375091;19;20014;-47
2022/12/02 09:33:52;;;;;;;61.45;26.25;;;3.20;99.90;;;;;;7376984;19;20029;-49
2022/12/02 09:36:19;;;;;;;52.92;25.98;;;3.20;99.90;;;;;;7373160;19;20018;-46
2022/12/02 09:38:45;;;;;;;52.28;26.40;;;3.20;99.90;;;;;;7374717;19;20484;-49
2022/12/02 09:41:11;;;;;;;64.90;30.25;;;3.20;99.90;;;;;;7371610;19;20022;-52
2022/12/02 09:43:38;;;;;;;39.95;20.83;;;3.10;99.90;;;;;;7360603;19;20019;-49
2022/12/02 09:46:05;;;;;;;54.92;25.25;;;3.10;99.90;;;;;;7371780;19;20021;-47
2022/12/02 09:48:31;;;;;;;59.33;28.23;;;3.10;99.90;;;;;;7367719;19;20481;-50
2022/12/02 09:50:59;;;;;;;58.13;28.80;;;3.10;99.90;;;;;;7372243;19;20117;-46
2022/12/02 09:53:30;;;;;;;58.63;28.13;;;3.10;99.90;;;;;;7374919;19;20078;-49
2022/12/02 09:55:56;;;;;;;52.33;24.38;;;3.00;99.90;;;;;;7373980;19;20045;-47
2022/12/02 09:58:24;;;;;;;66.72;30.65;;;3.00;99.90;;;;;;7371940;19;20078;-49
2022/12/02 10:00:52;;;;;;;59.33;26.02;;;3.00;99.90;;;;;;7368960;19;20026;-48
2022/12/02 10:03:24;;;;;;;55.63;24.77;;;3.00;99.90;;;;;;7369647;19;20697;-47
2022/12/02 10:05:50;;;;;;;51.40;26.67;;;3.00;99.90;;;;;;7374816;19;20348;-49
2022/12/02 10:08:20;;;;;;;56.85;25.52;;;3.10;99.90;;;;;;7373070;19;20957;-48
2022/12/02 10:10:47;;;;;;;55.17;25.92;;;3.10;99.90;;;;;;7365133;19;20024;-51
2022/12/02 10:13:16;;;;;;;55.55;25.98;;;3.10;99.90;;;;;;7368858;19;20038;-49
2022/12/02 10:15:43;;;;;;;55.47;26.60;;;3.10;99.90;;;;;;7366474;19;20111;-48
2022/12/02 10:18:27;;;;;;;56.75;25.83;;;3.20;99.90;;;;;;7366507;19;20359;-47
2022/12/02 10:20:53;;;;;;;60.33;25.15;;;3.20;99.90;;;;;;7363512;19;20018;-48
2022/12/02 10:23:24;;;;;;;72.45;28.92;;;3.20;99.90;;;;;;7364676;19;20607;-49
2022/12/02 10:26:08;;;;;;;59.53;25.13;;;3.30;99.90;;;;;;7365653;19;20444;-46
2022/12/02 10:28:36;;;;;;;55.92;24.92;;;3.30;99.90;;;;;;7370533;19;20022;-48
2022/12/02 10:31:18;;;;;;;54.60;24.50;;;3.20;99.90;;;;;;7371527;19;20078;-46
2022/12/02 10:33:51;;;;;;;62.03;25.23;;;3.30;99.90;;;;;;7371599;19;20426;-46
2022/12/02 10:36:32;;;;;;;53.67;24.45;;;3.20;99.90;;;;;;7370156;19;20047;-48
2022/12/02 10:39:23;;;;;;;49.90;23.25;;;3.20;99.90;;;;;;7372206;19;20022;-46
2022/12/02 10:42:02;;;;;;;47.33;22.52;;;3.20;99.90;;;;;;7366394;19;20014;-49
2022/12/02 10:44:30;;;;;;;52.63;22.60;;;3.20;99.90;;;;;;7371396;19;20473;-47
2022/12/02 10:47:16;;;;;;;46.10;21.98;;;3.10;99.90;;;;;;7370082;19;20476;-46
2022/12/02 10:49:50;;;;;;;45.17;23.83;;;3.10;99.90;;;;;;7379325;19;20477;-46
2022/12/02 10:52:20;;;;;;;48.85;21.27;;;3.10;99.90;;;;;;7379255;19;20030;-47
2022/12/02 10:54:50;;;;;;;47.17;21.48;;;3.00;99.90;;;;;;7374127;19;20489;-47
2022/12/02 10:57:25;;;;;;;45.30;20.95;;;3.00;99.90;;;;;;7376566;19;20036;-50
2022/12/02 10:59:54;;;;;;;43.47;21.20;;;3.00;99.90;;;;;;7380213;19;20407;-46
2022/12/02 11:02:28;;;;;;;40.80;20.40;;;3.00;99.90;;;;;;7375776;19;20108;-46
2022/12/02 11:04:55;;;;;;;37.65;18.55;;;3.00;99.90;;;;;;7374624;19;20018;-46
2022/12/02 11:07:23;;;;;;;44.85;20.63;;;3.10;99.90;;;;;;7378493;19;20074;-47
2022/12/02 11:09:53;;;;;;;42.22;20.95;;;3.10;99.90;;;;;;7370321;19;20447;-48
2022/12/02 11:12:56;;;;;;;39.35;20.60;;;3.10;99.90;;;;;;7371598;19;20022;-46
2022/12/02 11:15:45;;;;;;;54.35;28.08;;;3.10;99.90;;;;;;7377809;19;20050;-47
2022/12/02 11:18:24;;;;;;;49.85;27.38;;;3.00;99.90;;;;;;7377463;19;20046;-47
2022/12/02 11:20:55;;;;;;;43.85;22.38;;;3.10;99.90;;;;;;7382182;19;20502;-46
2022/12/02 11:23:30;;;;;;;45.07;21.97;;;3.10;99.90;;;;;;7381845;19;20018;-46
2022/12/02 11:26:18;;;;;;;47.22;20.95;;;3.10;99.90;;;;;;7383463;19;20082;-48
2022/12/02 11:29:12;;;;;;;45.78;22.15;;;3.10;99.90;;;;;;7377087;19;20056;-48
2022/12/02 11:31:38;;;;;;;51.42;25.48;;;3.10;99.90;;;;;;7377487;19;20508;-48
2022/12/02 11:34:24;;;;;;;54.45;26.67;;;3.10;99.90;;;;;;7378515;19;20542;-49
2022/12/02 11:37:25;;;;;;;49.38;23.50;;;3.20;99.90;;;;;;7373642;19;20517;-48
2022/12/02 11:40:12;;;;;;;;;;;3.20;99.90;;;;;;7385958;19;20014;-50
2022/12/02 11:42:41;;;;;;;53.63;25.98;;;3.20;99.90;;;;;;7380031;19;19922;-49
2022/12/02 11:45:16;;;;;;;55.85;27.20;;;3.10;99.90;;;;;;7376144;19;20030;-47
2022/12/02 11:47:44;;;;;;;58.25;29.67;;;3.20;99.90;;;;;;7373090;19;20058;-49
2022/12/02 11:50:15;;;;;;;56.72;28.20;;;3.10;99.90;;;;;;7375205;19;20029;-49
2022/12/02 11:52:43;;;;;;;58.33;30.40;;;3.10;99.90;;;;;;7373701;19;20482;-50
2022/12/02 11:55:24;;;;;;;58.28;29.52;;;3.10;99.90;;;;;;7355235;19;20039;-50
2022/12/02 11:57:54;;;;;;;63.88;32.83;;;3.10;99.90;;;;;;7369803;19;20037;-51
2022/12/02 12:00:30;;;;;;;61.60;30.42;;;3.10;99.90;;;;;;7373256;19;20046;-51
2022/12/02 12:03:29;;;;;;;52.83;27.48;;;3.20;99.90;;;;;;7373733;19;20029;-50
2022/12/02 12:06:09;;;;;;;53.92;28.52;;;3.10;99.90;;;;;;7370427;19;20048;-48
2022/12/02 12:08:41;;;;;;;56.75;28.60;;;3.20;99.90;;;;;;7371305;19;20091;-47
2022/12/02 12:11:25;;;;;;;60.85;32.42;;;3.20;99.90;;;;;;7375794;19;20042;-49
2022/12/02 12:14:01;;;;;;;49.83;23.40;;;3.30;99.90;;;;;;7369283;19;20022;-48
2022/12/02 12:16:32;;;;;;;61.30;29.73;;;3.30;99.90;;;;;;7375473;19;20441;-49
2022/12/02 12:19:22;;;;;;;;;;;3.20;99.90;;;;;;7370861;19;20577;-47
2022/12/02 12:21:54;;;;;;;52.13;26.70;;;3.20;99.90;;;;;;7372774;19;19939;-51
2022/12/02 12:24:22;;;;;;;52.00;26.63;;;3.20;99.90;;;;;;7378444;19;20022;-48
2022/12/02 12:27:01;;;;;;;55.17;25.80;;;3.20;99.90;;;;;;7380911;19;20086;-51
2022/12/02 12:29:33;;;;;;;49.00;25.10;;;3.20;99.90;;;;;;7379390;19;20362;-50
2022/12/02 12:32:00;;;;;;;64.50;32.08;;;3.20;99.90;;;;;;7380299;19;20033;-49
2022/12/02 12:34:28;;;;;;;57.03;29.45;;;3.20;99.90;;;;;;7383536;19;20352;-49
2022/12/02 12:36:54;;;;;;;57.63;31.00;;;3.20;99.90;;;;;;7381016;19;20039;-49
2022/12/02 12:39:20;;;;;;;61.30;32.70;;;3.20;99.90;;;;;;7380906;19;20552;-49
2022/12/02 12:41:47;;;;;;;61.60;30.35;;;3.20;99.90;;;;;;7382283;19;20019;-50
2022/12/02 12:44:14;;;;;;;58.65;30.55;;;3.20;99.90;;;;;;7384342;19;20019;-50
2022/12/02 12:46:40;;;;;;;56.67;29.88;;;3.20;99.90;;;;;;7380207;19;20015;-51
2022/12/02 12:49:07;;;;;;;60.72;31.55;;;3.20;99.90;;;;;;7379190;19;20538;-51
2022/12/02 12:51:33;;;;;;;58.33;30.92;;;3.20;99.90;;;;;;7377783;19;20022;-51
2022/12/02 12:53:59;;;;;;;57.75;32.60;;;3.20;99.90;;;;;;7380627;19;20122;-49
2022/12/02 12:56:25;;;;;;;52.42;29.98;;;3.20;99.90;;;;;;7376887;19;20028;-51
2022/12/02 12:58:52;;;;;;;65.70;35.38;;;3.20;99.90;;;;;;7380692;19;20022;-49
2022/12/02 13:01:18;;;;;;;63.70;33.80;;;3.20;99.90;;;;;;7380954;19;20022;-50
2022/12/02 13:03:44;;;;;;;51.50;27.50;;;3.20;99.90;;;;;;7379987;19;20025;-49
2022/12/02 13:06:10;;;;;;;63.33;34.95;;;3.10;99.90;;;;;;7370416;19;20584;-51